Latest Weather Observations for Julia Creek

IDQ60801

Issued at 11:02 am EST Thursday 2 July 2015 (issued every 30 minutes, with the page automatically refreshed every 10 minutes)

About weather observations | Map of weather stations | Latest weather observations for QLD | Other Formats
Station Details ID: 029058 Name: JULIA CREEK AIRPORT Lat: -20.67 Lon: 141.72 Height: 122.5 m
Data from the previous 72 hours. | See also: Recent months at Julia Creek
Date/Time
EST
Temp
°C
App
Temp
°C
Dew
Point
Rel
Hum
%
Delta-T
°C
Wind Press
QNH
hPa
Press
MSL
hPa
Rain
since 9 am
mm
Dir
 
Spd
km/h
Gust
km/h
Spd
kts
Gust
kts
02/11:00am 23.5 17.9 8.8 39 7.9 SE 28 35 15 19 1023.3 1023.0 0.0
02/10:30am 22.2 17.0 9.0 43 7.1 ESE 26 33 14 18 1023.8 1023.6 0.0
02/10:00am 20.9 16.3 9.5 48 6.1 ESE 24 32 13 17 1024.1 1023.9 0.0
02/09:30am 19.4 14.0 9.6 53 5.2 ESE 28 35 15 19 1024.1 1023.9 0.0
02/09:00am 17.5 12.3 8.9 57 4.5 SE 26 33 14 18 1024.1 1023.9 0.0
02/08:30am 16.2 11.3 8.4 60 4.0 SE 24 30 13 16 1023.8 1023.6 0.0
02/08:00am 15.6 11.4 8.1 61 3.8 SE 20 24 11 13 1023.6 1023.3 0.0
02/07:30am 14.3 10.9 7.6 64 3.3 SSE 15 19 8 10 1023.4 1023.1 0.0
02/07:00am 14.2 10.4 7.7 65 3.2 SSE 17 20 9 11 1023.0 1022.7 0.0
02/06:30am 14.3 10.9 7.6 64 3.3 SSE 15 19 8 10 1022.5 1022.2 0.0
02/06:00am 14.7 10.6 7.7 63 3.5 SSE 19 22 10 12 1021.8 1021.6 0.0
02/05:30am 14.2 11.2 7.9 66 3.1 SE 13 19 7 10 1021.5 1021.3 0.0
02/05:00am 14.6 10.9 8.1 65 3.3 SSE 17 20 9 11 1021.5 1021.3 0.0
02/04:30am 14.7 11.5 8.4 66 3.2 SSE 15 19 8 10 1021.5 1021.3 0.0
02/04:00am 15.2 12.1 8.9 66 3.2 SSE 15 19 8 10 1021.4 1021.2 0.0
02/03:30am 15.0 11.9 8.7 66 3.2 SSE 15 19 8 10 1021.4 1021.2 0.0
02/03:00am 15.2 11.8 9.1 67 3.1 SSE 17 20 9 11 1021.5 1021.3 0.0
02/02:30am 14.6 12.2 8.8 68 3.0 SSE 11 13 6 7 1021.5 1021.3 0.0
02/02:00am 14.9 12.5 8.8 67 3.1 SE 11 13 6 7 1021.7 1021.5 0.0
02/01:30am 14.9 12.5 8.6 66 3.2 SE 11 11 6 6 1021.9 1021.7 0.0
02/01:00am 15.8 13.5 9.0 64 3.5 SSE 11 13 6 7 1021.9 1021.7 0.0
02/12:30am 16.7 14.4 9.1 61 3.9 SE 11 15 6 8 1021.7 1021.5 0.0
02/12:00am 17.7 14.8 9.8 60 4.2 SSE 15 17 8 9 1021.8 1021.6 0.0
 
Date/Time
EST
Temp
°C
App
Temp
°C
Dew
Point
Rel
Hum
%
Delta-T
°C
Wind Press
QNH
hPa
Press
MSL
hPa
Rain
since 9 am
mm
Dir
 
Spd
km/h
Gust
km/h
Spd
kts
Gust
kts
01/11:30pm 18.4 15.2 10.0 58 4.5 SSE 17 20 9 11 1021.9 1021.7 0.0
01/11:00pm 18.6 15.8 9.9 57 4.6 SSE 15 17 8 9 1022.0 1021.8 0.0
01/10:30pm 18.9 16.1 9.9 56 4.8 SSE 15 19 8 10 1022.0 1021.8 0.0
01/10:00pm 18.0 15.3 8.8 55 4.8 SSE 13 15 7 8 1021.9 1021.7 0.0
01/09:30pm 18.9 16.2 9.1 53 5.1 SSE 13 15 7 8 1021.6 1021.4 0.0
01/09:00pm 19.6 17.0 9.5 52 5.4 SSE 13 15 7 8 1021.4 1021.2 0.0
01/08:30pm 20.1 17.6 9.7 51 5.6 SSE 13 13 7 7 1021.1 1020.9 0.0
01/08:00pm 21.1 18.7 10.0 49 6.0 SSE 13 15 7 8 1020.9 1020.7 0.0
01/07:30pm 22.2 19.4 10.0 46 6.7 SSE 15 17 8 9 1020.6 1020.4 0.0
01/07:00pm 23.0 20.6 10.1 44 7.1 SSE 13 15 7 8 1020.3 1020.1 0.0
01/06:30pm 24.4 21.3 10.3 41 7.8 SSE 17 19 9 10 1020.2 1020.0 0.0
01/06:00pm 25.9 22.5 10.5 38 8.6 SSE 19 24 10 13 1020.0 1019.8 0.0
01/05:30pm 27.0 23.2 11.1 37 9.1 SE 22 32 12 17 1019.8 1019.6 0.0
01/05:00pm 27.4 23.9 11.0 36 9.3 SSE 20 28 11 15 1019.6 1019.4 0.0
01/04:30pm 27.7 23.4 10.9 35 9.6 SE 24 32 13 17 1019.4 1019.2 0.0
01/04:00pm 28.3 24.9 11.4 35 9.7 SE 20 30 11 16 1019.5 1019.3 0.0
01/03:30pm 28.0 24.3 11.5 35 9.5 SSE 22 33 12 18 1019.6 1019.4 0.0
01/03:00pm 28.6 25.9 12.9 38 9.3 SE 19 30 10 16 1019.8 1019.6 0.0
01/02:30pm 27.8 24.3 12.2 38 9.1 SE 22 35 12 19 1020.1 1019.9 0.0
01/02:00pm 27.6 24.3 12.8 40 8.7 SE 22 37 12 20 1020.5 1020.3 0.0
01/01:30pm 27.1 24.1 12.7 41 8.4 SE 20 30 11 16 1021.1 1020.9 0.0
01/01:00pm 26.9 24.1 13.3 43 8.0 SE 20 32 11 17 1021.8 1021.6 0.0
01/12:30pm 26.6 23.3 14.0 46 7.5 SE 24 33 13 18 1022.5 1022.2 0.0
01/12:00pm 25.8 22.9 14.0 48 7.0 SE 22 32 12 17 1023.0 1022.7 0.0
01/11:30am 25.1 21.8 13.9 49 6.6 SE 24 32 13 17 1023.5 1023.2 0.0
01/11:00am 24.5 21.4 14.6 54 5.9 SE 24 33 13 18 1023.9 1023.7 0.0
01/10:30am 23.7 20.7 14.9 57 5.3 ESE 24 33 13 18 1024.1 1023.9 0.0
01/10:00am 22.6 20.0 15.0 62 4.5 ESE 22 28 12 15 1024.4 1024.2 0.0
01/09:30am 20.8 18.0 14.2 66 3.9 SE 22 26 12 14 1024.5 1024.2 0.0
01/09:00am 19.4 16.9 14.0 71 3.1 ESE 20 28 11 15 1024.1 1023.8 0.2
01/08:30am 17.9 15.8 13.6 76 2.5 SE 17 24 9 13 1023.9 1023.6 0.2
01/08:00am 16.2 13.9 12.9 81 1.8 SE 17 20 9 11 1023.4 1023.1 0.2
01/07:30am 15.0 13.3 12.5 85 1.4 SE 13 17 7 9 1023.0 1022.7 0.2
01/07:00am 15.0 12.9 12.5 85 1.4 SSE 15 17 8 9 1022.7 1022.4 0.2
01/06:30am 15.0 12.9 12.5 85 1.4 SE 15 20 8 11 1022.2 1022.0 0.2
01/06:00am 15.2 13.3 12.9 86 1.3 SSE 15 19 8 10 1021.9 1021.7 0.2
01/05:30am 15.3 13.4 13.0 86 1.3 SSE 15 17 8 9 1021.9 1021.7 0.2
01/05:00am 15.3 13.4 13.0 86 1.3 SSE 15 19 8 10 1021.9 1021.7 0.2
01/04:30am 15.8 13.7 13.5 86 1.3 SE 17 20 9 11 1021.9 1021.7 0.2
01/04:00am 15.8 14.1 13.5 86 1.3 SE 15 17 8 9 1021.9 1021.7 0.2
01/03:30am 15.8 13.7 13.5 86 1.3 SE 17 20 9 11 1021.9 1021.7 0.2
01/03:00am 15.6 13.4 13.3 86 1.3 SSE 17 19 9 10 1021.8 1021.6 0.2
01/02:30am 15.5 14.1 13.3 87 1.2 SSE 13 17 7 9 1022.0 1021.8 0.2
01/02:00am 15.9 14.2 13.6 86 1.3 SSE 15 17 8 9 1022.1 1021.9 0.2
01/01:30am 15.8 14.4 13.3 85 1.4 S 13 15 7 8 1022.2 1022.0 0.2
01/01:00am 16.1 15.1 13.4 84 1.5 SSE 11 15 6 8 1022.1 1021.9 0.2
01/12:30am 16.2 14.8 13.3 83 1.6 S 13 15 7 8 1022.1 1021.9 0.2
01/12:00am 16.0 15.3 13.3 84 1.5 SE 9 11 5 6 1022.1 1021.9 0.2
 
Date/Time
EST
Temp
°C
App
Temp
°C
Dew
Point
Rel
Hum
%
Delta-T
°C
Wind Press
QNH
hPa
Press
MSL
hPa
Rain
since 9 am
mm
Dir
 
Spd
km/h
Gust
km/h
Spd
kts
Gust
kts
30/11:30pm 16.2 15.5 13.3 83 1.6 SE 9 11 5 6 1022.0 1021.8 0.2
30/11:00pm 16.2 15.4 12.9 81 1.8 ESE 9 9 5 5 1022.1 1021.9 0.2
30/10:30pm 16.9 16.3 13.4 80 2.0 ESE 9 9 5 5 1022.3 1022.1 0.2
30/10:00pm 17.8 17.0 13.9 78 2.2 ESE 11 13 6 7 1022.2 1022.0 0.2
30/09:30pm 18.8 18.1 14.3 75 2.6 ESE 11 15 6 8 1022.1 1021.9 0.2
30/09:00pm 19.7 18.3 14.5 72 3.0 E 15 17 8 9 1022.1 1021.9 0.2
30/08:30pm 20.1 18.3 14.5 70 3.3 ESE 17 20 9 11 1022.1 1021.9 0.2
30/08:00pm 20.7 19.0 14.8 69 3.5 ESE 17 19 9 10 1021.8 1021.6 0.2
30/07:30pm 21.3 19.6 14.7 66 3.9 ESE 17 20 9 11 1021.6 1021.4 0.2
30/07:00pm 21.9 20.5 14.5 63 4.4 ESE 15 19 8 10 1021.1 1020.9 0.2
30/06:30pm 22.7 21.4 14.8 61 4.7 ESE 15 19 8 10 1021.0 1020.8 0.2
30/06:00pm 23.6 21.5 15.1 59 5.1 ESE 20 26 11 14 1020.8 1020.6 0.2
30/05:30pm 24.1 22.2 15.1 57 5.4 ESE 19 24 10 13 1020.4 1020.2 0.2
30/05:00pm 24.8 22.8 15.4 56 5.7 ESE 20 24 11 13 1020.1 1019.9 0.2
30/04:30pm 24.9 22.0 15.2 54 5.9 ESE 24 30 13 16 1019.8 1019.6 0.2
30/04:00pm 26.1 24.2 15.8 53 6.3 E 20 26 11 14 1019.6 1019.4 0.2
30/03:30pm 25.3 23.1 15.9 56 5.8 E 22 28 12 15 1019.6 1019.4 0.2
30/03:00pm 25.1 22.5 16.0 57 5.6 ESE 24 32 13 17 1019.9 1019.7 0.2
30/02:30pm 25.7 23.8 15.7 54 6.1 E 20 28 11 15 1020.0 1019.8 0.2
30/02:00pm 25.9 24.3 15.9 54 6.1 E 19 26 10 14 1020.3 1020.1 0.2
30/01:30pm 25.1 23.7 16.5 59 5.3 ESE 19 28 10 15 1020.8 1020.6 0.2
30/01:00pm 24.3 22.4 16.6 62 4.7 ESE 22 28 12 15 1021.3 1021.1 0.2
30/12:30pm 24.4 21.9 17.1 63 4.5 ESE 26 33 14 18 1021.7 1021.5 0.2
30/12:00pm 23.5 20.3 16.3 64 4.4 E 28 35 15 19 1021.8 1021.6 0.2
30/11:30am 23.2 20.1 17.4 70 3.6 ESE 30 37 16 20 1022.0 1021.8 0.2
30/11:00am 22.0 19.3 17.6 76 2.7 ESE 28 37 15 20 1022.2 1022.0 0.0
30/10:30am 21.3 18.6 17.5 79 2.4 E 28 33 15 18 1022.7 1022.4 0.0
30/10:00am 21.3 19.7 18.3 83 1.9 E 24 30 13 16 1022.9 1022.6 0.0
30/09:30am 20.2 18.2 17.4 84 1.7 E 24 30 13 16 1022.9 1022.6 0.0
30/09:00am 19.9 17.8 18.0 89 1.2 ESE 26 32 14 17 1022.6 1022.3 1.6
30/08:30am 18.9 17.7 17.6 92 0.8 ESE 20 26 11 14 1022.1 1021.9 1.6
30/08:00am 18.5 17.4 17.3 93 0.7 ESE 19 24 10 13 1021.7 1021.5 1.6
30/07:30am 18.3 17.2 17.3 94 0.6 ESE 19 22 10 12 1021.5 1021.3 1.6
30/07:00am 18.3 17.6 17.3 94 0.6 SE 17 22 9 12 1021.3 1021.1 1.6
30/06:30am 18.3 17.2 17.3 94 0.6 ESE 19 24 10 13 1020.7 1020.5 1.6
30/06:00am 18.4 18.1 17.4 94 0.6 SE 15 20 8 11 1020.4 1020.2 1.6
30/05:30am 18.6 18.0 17.6 94 0.6 SSE 17 22 9 12 1020.4 1020.2 1.6
30/05:00am 19.1 19.3 17.6 91 0.9 SE 13 15 7 8 1020.4 1020.2 1.6
30/04:30am 19.0 19.3 17.8 93 0.7 SE 13 17 7 9 1020.3 1020.1 1.6
30/04:00am 19.0 18.5 17.7 92 0.8 SE 17 19 9 10 1020.4 1020.2 1.6
30/03:30am 19.2 18.6 17.5 90 1.0 ESE 17 20 9 11 1020.0 1019.8 1.2
30/03:00am 20.7 20.5 16.7 78 2.4 E 13 22 7 12 1020.1 1019.9 0.2
30/02:30am 21.0 21.3 17.0 78 2.5 ESE 11 15 6 8 1020.1 1019.9 0.2
30/02:00am 21.1 21.4 17.1 78 2.5 E 11 13 6 7 1020.0 1019.8 0.2
30/01:30am 21.1 21.4 17.1 78 2.5 E 11 15 6 8 1020.0 1019.8 0.2
30/01:00am 22.5 22.4 16.1 67 3.9 ENE 11 15 6 8 1019.9 1019.7 0.0
30/12:30am 23.6 22.1 15.4 60 4.9 E 17 20 9 11 1019.7 1019.5 0.0
30/12:00am 24.0 22.1 15.2 58 5.3 E 19 30 10 16 1019.6 1019.4 0.0
 
Date/Time
EST
Temp
°C
App
Temp
°C
Dew
Point
Rel
Hum
%
Delta-T
°C
Wind Press
QNH
hPa
Press
MSL
hPa
Rain
since 9 am
mm
Dir
 
Spd
km/h
Gust
km/h
Spd
kts
Gust
kts
29/11:30pm 24.4 22.2 14.5 54 5.9 E 19 24 10 13 1019.6 1019.4 0.0
29/11:00pm 24.3 21.5 13.2 50 6.5 ESE 20 28 11 15 1019.6 1019.4 0.0
29/10:30pm 24.2 21.5 12.8 49 6.6 SE 19 26 10 14 1019.4 1019.2 0.0
29/10:00pm 23.9 21.1 12.5 49 6.5 SE 19 24 10 13 1019.4 1019.2 0.0
29/09:30pm 24.0 21.1 12.3 48 6.7 ESE 19 22 10 12 1019.3 1019.1 0.0
29/09:00pm 24.4 21.5 12.4 47 6.9 ESE 19 24 10 13 1019.2 1019.0 0.0
29/08:30pm 24.5 21.9 12.1 46 7.1 SE 17 22 9 12 1018.8 1018.6 0.0
29/08:00pm 25.2 23.1 12.4 45 7.4 SE 15 19 8 10 1018.5 1018.2 0.0
29/07:30pm 24.6 22.7 11.9 45 7.3 SSE 13 15 7 8 1018.3 1018.0 0.0
29/07:00pm 24.5 22.9 11.5 44 7.4 SSE 11 11 6 6 1018.1 1017.8 0.0
29/06:30pm 26.2 24.3 11.9 41 8.2 SE 13 17 7 9 1017.8 1017.5 0.0
29/06:00pm 27.4 24.7 11.8 38 9.0 ESE 17 19 9 10 1017.7 1017.4 0.0
29/05:30pm 28.5 26.7 12.0 36 9.6 SE 13 19 7 10 1017.6 1017.3 0.0
29/05:00pm 29.0 27.2 12.0 35 9.9 ESE 13 20 7 11 1017.4 1017.1 0.0
29/04:30pm 29.5 28.4 12.0 34 10.2 ESE 9 20 5 11 1017.3 1017.0 0.0
29/04:00pm 29.4 28.5 11.5 33 10.4 E 7 15 4 8 1017.3 1017.0 0.0
29/03:30pm 29.1 27.7 12.1 35 9.9 SE 11 19 6 10 1017.3 1017.0 0.0
29/03:00pm 28.9 26.6 11.9 35 9.9 ESE 15 22 8 12 1017.5 1017.2 0.0
29/02:30pm 28.8 26.3 12.2 35 9.7 E 17 22 9 12 1017.8 1017.5 0.0
29/02:00pm 28.4 26.4 12.7 38 9.2 ESE 15 24 8 13 1018.2 1017.9 0.0
29/01:30pm 28.1 26.3 12.0 36 9.4 ESE 13 22 7 12 1018.9 1018.7 0.0
29/01:00pm 27.3 25.4 12.9 41 8.5 ESE 15 24 8 13 1019.7 1019.5 0.0
29/12:30pm 26.9 25.2 13.6 44 7.9 E 15 28 8 15 1020.2 1020.0 0.0
29/12:00pm 26.3 23.6 13.4 45 7.6 E 20 28 11 15 1020.7 1020.5 0.0
29/11:30am 25.5 21.5 13.0 46 7.3 E 26 33 14 18 1021.2 1021.0 0.0

Other Formats:

Comma delimited format used in spreadsheet applications
http://www.bom.gov.au/fwo/IDQ60801/IDQ60801.94337.axf

JavaScript Object Notation format (JSON) in row-major order
http://www.bom.gov.au/fwo/IDQ60801/IDQ60801.94337.json